createdAt,value
2019-01-26T00:02:26.624Z,43.50
2019-01-26T00:04:56.423Z,43.33
2019-01-26T00:07:26.090Z,44.37
2019-01-26T00:09:55.755Z,43.93
2019-01-26T00:12:25.464Z,43.60
2019-01-26T00:14:55.098Z,43.67
2019-01-26T00:17:24.755Z,43.77
2019-01-26T00:19:54.391Z,43.73
2019-01-26T00:22:24.042Z,43.77
2019-01-26T00:24:53.689Z,44.10
2019-01-26T00:27:23.342Z,43.60
2019-01-26T00:29:53.009Z,44.17
2019-01-26T00:32:22.646Z,43.80
2019-01-26T00:34:52.316Z,43.80
2019-01-26T00:37:21.979Z,44.03
2019-01-26T00:39:51.752Z,44.30
2019-01-26T00:42:21.450Z,43.83
2019-01-26T00:44:51.088Z,44.13
2019-01-26T00:47:21.742Z,44.07
2019-01-26T00:49:51.405Z,44.00
2019-01-26T00:52:21.043Z,44.03
2019-01-26T00:58:25.383Z,43.70
2019-01-26T01:00:55.149Z,44.03
2019-01-26T01:03:24.823Z,44.97
2019-01-26T01:05:54.510Z,43.97
2019-01-26T01:08:24.162Z,44.10
2019-01-26T01:10:53.817Z,44.53
2019-01-26T01:13:23.635Z,43.83
2019-01-26T01:15:53.495Z,44.47
2019-01-26T01:18:23.167Z,43.87
2019-01-26T01:20:52.861Z,44.40
2019-01-26T01:23:22.620Z,43.70
2019-01-26T01:25:52.272Z,44.53
2019-01-26T01:28:22.001Z,44.10
2019-01-26T01:30:51.645Z,43.93
2019-01-26T01:33:21.377Z,44.53
2019-01-26T01:35:51.019Z,44.30
2019-01-26T01:38:20.738Z,44.33
2019-01-26T01:40:50.455Z,43.97
2019-01-26T01:43:20.172Z,44.03
2019-01-26T01:45:49.958Z,44.63
2019-01-26T01:48:19.623Z,44.40
2019-01-26T01:50:49.455Z,43.90
2019-01-26T01:53:19.180Z,43.90
2019-01-26T01:55:48.831Z,45.20
2019-01-26T01:58:18.510Z,44.37
2019-01-26T02:00:48.276Z,44.47
2019-01-26T02:03:18.013Z,45.17
2019-01-26T02:05:47.788Z,44.80
2019-01-26T02:08:17.431Z,44.70
2019-01-26T02:10:47.311Z,44.43
2019-01-26T02:13:16.976Z,44.63
2019-01-26T02:15:46.715Z,44.97
2019-01-26T02:18:16.371Z,45.27
2019-01-26T02:20:45.997Z,45.50
2019-01-26T02:23:15.652Z,45.27
2019-01-26T02:25:45.360Z,44.83
2019-01-26T02:28:15.187Z,45.07
2019-01-26T02:30:45.071Z,45.30
2019-01-26T02:33:14.722Z,44.80
2019-01-26T02:35:44.450Z,45.17
2019-01-26T02:38:14.170Z,45.07
2019-01-26T02:40:43.831Z,45.60
2019-01-26T02:43:13.471Z,45.20
2019-01-26T02:45:43.212Z,45.40
2019-01-26T02:48:12.854Z,45.13
2019-01-26T02:50:42.529Z,44.80
2019-01-26T02:53:12.231Z,46.13
2019-01-26T02:55:41.889Z,46.60
2019-01-26T02:58:11.523Z,45.70
2019-01-26T03:00:41.193Z,45.40
2019-01-26T03:03:10.862Z,46.03
2019-01-26T03:05:40.506Z,46.23
2019-01-26T03:08:11.770Z,45.70
2019-01-26T03:10:41.428Z,45.77
2019-01-26T03:13:14.171Z,45.77
2019-01-26T03:15:43.916Z,45.83
2019-01-26T03:18:13.531Z,45.37
2019-01-26T03:20:43.180Z,45.43
2019-01-26T03:23:12.826Z,45.40
2019-01-26T03:25:42.489Z,45.27
2019-01-26T03:28:12.208Z,45.40
2019-01-26T03:30:41.869Z,46.23
2019-01-26T03:33:11.545Z,46.17
2019-01-26T03:35:41.339Z,46.23
2019-01-26T03:38:10.996Z,46.20
2019-01-26T03:40:40.646Z,46.43
2019-01-26T03:43:10.381Z,45.77
2019-01-26T03:45:40.027Z,45.93
2019-01-26T03:48:09.852Z,46.20
2019-01-26T03:50:39.674Z,45.80
2019-01-26T03:53:09.311Z,46.07
2019-01-26T03:55:38.973Z,45.93
2019-01-26T03:58:08.611Z,46.50
2019-01-26T04:00:38.370Z,45.67
2019-01-26T04:03:08.144Z,46.03
2019-01-26T04:05:38.610Z,46.07
2019-01-26T04:08:08.311Z,45.20
2019-01-26T04:10:38.042Z,46.30
2019-01-26T04:13:07.854Z,46.50
2019-01-26T04:15:37.656Z,45.87
2019-01-26T04:18:07.491Z,45.43
2019-01-26T04:20:37.299Z,45.83
2019-01-26T04:23:07.115Z,46.07
2019-01-26T04:25:36.759Z,45.70
2019-01-26T04:28:06.491Z,45.67
2019-01-26T04:30:36.203Z,46.03
2019-01-26T04:33:05.933Z,44.93
2019-01-26T04:35:35.570Z,45.40
2019-01-26T04:38:05.299Z,45.90
2019-01-26T04:40:34.963Z,46.27
2019-01-26T04:43:04.748Z,45.97
2019-01-26T04:45:34.483Z,45.97
2019-01-26T04:48:04.299Z,46.27
2019-01-26T04:50:33.925Z,45.97
2019-01-26T04:53:03.655Z,45.37
2019-01-26T04:55:33.325Z,45.80
2019-01-26T04:58:03.030Z,45.37
2019-01-26T05:00:32.970Z,45.70
2019-01-26T05:03:02.612Z,46.17
2019-01-26T05:05:32.318Z,45.50
2019-01-26T05:08:02.053Z,45.73
2019-01-26T05:10:31.699Z,46.07
2019-01-26T05:13:01.373Z,46.10
2019-01-26T05:15:31.155Z,45.83
2019-01-26T05:18:00.919Z,46.27
2019-01-26T05:20:30.588Z,45.47
2019-01-26T05:23:00.320Z,45.07
2019-01-26T05:25:29.963Z,45.60
2019-01-26T05:27:59.651Z,45.60
2019-01-26T05:30:30.011Z,46.07
2019-01-26T05:32:59.795Z,46.67
2019-01-26T05:35:29.448Z,46.57
2019-01-26T05:37:59.097Z,46.80
2019-01-26T05:40:28.843Z,46.10
2019-01-26T05:42:58.509Z,46.10
2019-01-26T05:45:28.250Z,46.73
2019-01-26T05:47:57.895Z,45.57
2019-01-26T05:50:27.956Z,46.40
2019-01-26T05:52:57.668Z,46.07
2019-01-26T05:55:27.319Z,46.13
2019-01-26T05:57:57.000Z,45.63
2019-01-26T06:00:30.110Z,46.27
2019-01-26T06:02:59.826Z,45.10
2019-01-26T06:05:29.629Z,45.80
2019-01-26T06:07:59.431Z,45.83
2019-01-26T06:10:29.087Z,46.10
2019-01-26T06:12:59.077Z,46.27
2019-01-26T06:15:28.900Z,46.63
2019-01-26T06:17:58.685Z,46.00
2019-01-26T06:20:28.374Z,46.77
2019-01-26T06:22:58.089Z,45.47
2019-01-26T06:25:27.809Z,46.17
2019-01-26T06:27:57.460Z,46.73
2019-01-26T06:30:27.364Z,46.53
2019-01-26T06:32:57.007Z,46.43
2019-01-26T06:35:26.668Z,46.27
2019-01-26T06:37:56.381Z,46.07
2019-01-26T06:40:26.036Z,46.37
2019-01-26T06:42:55.754Z,46.37
2019-01-26T06:45:25.582Z,46.10
2019-01-26T06:48:01.906Z,46.17
2019-01-26T06:50:27.845Z,45.93
2019-01-26T06:52:57.482Z,46.33
2019-01-26T06:55:28.090Z,46.20
2019-01-26T06:57:57.735Z,46.20
2019-01-26T07:00:30.518Z,45.67
2019-01-26T07:03:00.397Z,47.07
2019-01-26T07:05:36.892Z,46.97
2019-01-26T07:08:06.800Z,46.83
2019-01-26T07:10:36.437Z,47.07
2019-01-26T07:13:06.248Z,46.20
2019-01-26T07:15:35.964Z,46.70
2019-01-26T07:18:09.505Z,46.57
2019-01-26T07:20:37.201Z,46.60
2019-01-26T07:23:07.041Z,46.77
2019-01-26T07:25:36.748Z,45.90
2019-01-26T07:28:06.627Z,46.13
2019-01-26T07:30:36.350Z,46.33
2019-01-26T07:33:06.152Z,46.47
2019-01-26T07:35:35.804Z,46.50
2019-01-26T07:38:05.666Z,46.83
2019-01-26T07:40:35.306Z,46.23
2019-01-26T07:43:05.075Z,46.57
2019-01-26T07:45:35.761Z,46.33
2019-01-26T07:48:05.546Z,46.33
2019-01-26T07:50:35.332Z,45.83
2019-01-26T07:53:05.158Z,46.03
2019-01-26T07:55:34.879Z,46.20
2019-01-26T07:58:04.776Z,47.47
2019-01-26T08:00:34.571Z,46.33
2019-01-26T08:03:04.383Z,46.10
2019-01-26T08:05:34.096Z,46.27
2019-01-26T08:08:04.196Z,45.23
2019-01-26T08:10:33.909Z,45.37
2019-01-26T08:13:03.666Z,45.43
2019-01-26T08:15:35.511Z,45.43
2019-01-26T08:18:06.854Z,45.07
2019-01-26T08:20:36.578Z,45.03
2019-01-26T08:23:06.256Z,44.77
2019-01-26T08:25:35.895Z,44.97
2019-01-26T08:28:05.639Z,44.47
2019-01-26T08:30:35.370Z,45.03
2019-01-26T08:33:05.252Z,45.23
2019-01-26T08:35:35.026Z,44.53
2019-01-26T08:38:05.139Z,44.43
2019-01-26T08:40:34.879Z,44.97
2019-01-26T08:43:04.807Z,44.80
2019-01-26T08:45:34.598Z,44.60
2019-01-26T08:48:04.596Z,44.90
2019-01-26T08:50:34.321Z,44.90
2019-01-26T08:53:04.033Z,44.90
2019-01-26T08:55:33.771Z,44.67
2019-01-26T08:58:03.488Z,45.73
2019-01-26T09:00:33.288Z,44.90
2019-01-26T09:03:22.024Z,45.07
2019-01-26T09:05:58.507Z,44.57
2019-01-26T09:08:28.295Z,45.57
2019-01-26T09:10:58.196Z,44.80
2019-01-26T09:13:27.973Z,44.87
2019-01-26T09:15:57.706Z,45.00
2019-01-26T09:18:27.354Z,45.27
2019-01-26T09:20:57.146Z,45.30
2019-01-26T09:23:26.943Z,44.87
2019-01-26T09:25:56.638Z,44.97
2019-01-26T09:28:26.364Z,45.43
2019-01-26T09:30:56.011Z,45.00
2019-01-26T09:33:25.655Z,44.83
2019-01-26T09:35:55.391Z,45.33
2019-01-26T09:38:25.067Z,45.57
2019-01-26T09:40:54.865Z,45.10
2019-01-26T09:43:24.570Z,44.47
2019-01-26T09:45:54.351Z,45.13
2019-01-26T09:48:24.071Z,45.37
2019-01-26T09:50:53.810Z,44.50
2019-01-26T09:53:23.683Z,45.27
2019-01-26T09:55:53.355Z,45.10
2019-01-26T09:58:23.128Z,45.90
2019-01-26T10:00:52.827Z,44.27
2019-01-26T10:03:22.467Z,45.13
2019-01-26T10:05:52.184Z,44.57
2019-01-26T10:08:21.842Z,44.43
2019-01-26T10:10:51.650Z,44.87
2019-01-26T10:13:21.379Z,45.37
2019-01-26T10:15:51.024Z,44.77
2019-01-26T10:18:20.822Z,45.23
2019-01-26T10:20:50.790Z,44.90
2019-01-26T10:23:20.447Z,44.70
2019-01-26T10:25:50.210Z,44.53
2019-01-26T10:28:19.852Z,44.73
2019-01-26T10:30:52.500Z,44.83
2019-01-26T10:34:08.557Z,44.27
2019-01-26T10:37:27.574Z,44.73
2019-01-26T10:40:08.036Z,45.03
2019-01-26T10:42:37.713Z,45.00
2019-01-26T10:45:07.937Z,45.20
2019-01-26T10:47:37.579Z,45.17
2019-01-26T10:50:07.708Z,44.73
2019-01-26T10:52:37.550Z,45.30
2019-01-26T10:55:09.072Z,45.47
2019-01-26T10:57:38.749Z,45.43
2019-01-26T11:00:12.124Z,45.27
2019-01-26T11:02:41.856Z,46.87
2019-01-26T11:05:11.656Z,44.73
2019-01-26T11:08:03.830Z,45.87
2019-01-26T11:10:24.798Z,44.97
2019-01-26T11:12:54.572Z,44.47
2019-01-26T11:15:24.225Z,44.70
2019-01-26T11:18:02.011Z,45.17
2019-01-26T11:20:33.335Z,45.50
2019-01-26T11:23:03.105Z,45.37
2019-01-26T11:25:33.135Z,44.90
2019-01-26T11:28:02.882Z,44.17
2019-01-26T11:30:33.643Z,45.63
2019-01-26T11:33:03.380Z,45.30
2019-01-26T11:35:33.030Z,45.37
2019-01-26T11:38:02.767Z,45.07
2019-01-26T11:40:32.820Z,45.60
2019-01-26T11:43:02.614Z,45.37
2019-01-26T11:45:42.940Z,45.63
2019-01-26T11:48:18.288Z,45.30
2019-01-26T11:50:52.638Z,45.23
2019-01-26T11:53:22.307Z,45.60
2019-01-26T11:56:06.012Z,45.53
2019-01-26T11:58:42.351Z,44.97
2019-01-26T12:01:33.721Z,44.37
2019-01-26T12:04:10.830Z,45.03
2019-01-26T12:06:48.823Z,44.97
2019-01-26T12:09:18.852Z,45.10
2019-01-26T12:11:48.586Z,45.43
2019-01-26T12:14:18.313Z,45.03
2019-01-26T12:16:49.064Z,45.13
2019-01-26T12:19:22.457Z,45.53
2019-01-26T12:21:50.134Z,45.33
2019-01-26T12:24:19.919Z,45.33
2019-01-26T12:26:49.569Z,46.07
2019-01-26T12:29:19.231Z,45.73
2019-01-26T12:31:51.021Z,46.93
2019-01-26T12:34:20.701Z,45.60
2019-01-26T12:36:51.091Z,45.43
2019-01-26T12:39:20.800Z,45.83
2019-01-26T12:41:50.481Z,45.43
2019-01-26T12:44:21.816Z,46.03
2019-01-26T12:46:51.474Z,45.97
2019-01-26T12:49:21.132Z,46.27
2019-01-26T12:51:50.834Z,45.80
2019-01-26T12:54:20.521Z,45.37
2019-01-26T12:56:50.159Z,45.67
2019-01-26T12:59:19.907Z,47.13
2019-01-26T13:01:52.427Z,45.03
2019-01-26T13:04:22.746Z,45.90
2019-01-26T13:06:52.445Z,45.67
2019-01-26T13:09:22.243Z,46.07
2019-01-26T13:11:52.004Z,46.03
2019-01-26T13:14:21.674Z,46.43
2019-01-26T13:16:51.423Z,45.77
2019-01-26T13:19:21.183Z,46.03
2019-01-26T13:21:51.982Z,45.60
2019-01-26T13:24:21.774Z,45.23
2019-01-26T13:26:51.510Z,46.23
2019-01-26T13:29:21.276Z,45.97
2019-01-26T13:31:51.001Z,45.33
2019-01-26T13:34:20.769Z,45.77
2019-01-26T13:36:53.381Z,47.23
2019-01-26T13:39:23.042Z,45.83
2019-01-26T13:41:52.793Z,45.80
2019-01-26T13:44:22.465Z,46.13
2019-01-26T13:46:52.282Z,45.77
2019-01-26T13:49:21.958Z,46.53
2019-01-26T13:51:51.692Z,46.43
2019-01-26T13:54:21.599Z,46.63
2019-01-26T13:56:51.431Z,46.70
2019-01-26T13:59:21.086Z,47.07
2019-01-26T14:01:50.767Z,47.43
2019-01-26T14:04:20.699Z,46.80
2019-01-26T14:06:50.406Z,45.83
2019-01-26T14:09:20.208Z,47.10
2019-01-26T14:11:49.884Z,46.87
2019-01-26T14:14:19.595Z,46.43
2019-01-26T14:16:49.313Z,46.20
2019-01-26T14:19:20.273Z,46.30
2019-01-26T14:21:50.533Z,46.77
2019-01-26T14:24:20.329Z,46.47
2019-01-26T14:26:50.212Z,46.23
2019-01-26T14:29:19.874Z,45.63
2019-01-26T14:31:49.621Z,47.47
2019-01-26T14:34:19.440Z,46.27
2019-01-26T14:36:51.282Z,46.30
2019-01-26T14:39:21.140Z,46.47
2019-01-26T14:41:51.063Z,46.13
2019-01-26T14:44:22.002Z,46.70
2019-01-26T14:46:51.667Z,47.33
2019-01-26T14:49:21.388Z,46.80
2019-01-26T14:51:51.033Z,47.00
2019-01-26T14:54:20.780Z,47.20
2019-01-26T14:56:50.451Z,46.77
2019-01-26T14:59:20.285Z,47.17
2019-01-26T15:01:49.924Z,46.93
2019-01-26T15:04:19.592Z,47.13
2019-01-26T15:06:49.296Z,46.50
2019-01-26T15:09:19.041Z,45.80
2019-01-26T15:11:48.717Z,46.67
2019-01-26T15:14:18.364Z,46.43
2019-01-26T15:16:48.102Z,46.03
2019-01-26T15:19:17.763Z,45.30
2019-01-26T15:21:47.415Z,45.87
2019-01-26T15:24:17.155Z,45.83
2019-01-26T15:26:47.786Z,46.67
2019-01-26T15:29:17.558Z,45.97
2019-01-26T15:31:47.224Z,45.83
2019-01-26T15:34:16.918Z,45.67
2019-01-26T15:36:46.583Z,46.67
2019-01-26T15:39:16.243Z,45.87
2019-01-26T15:41:45.913Z,45.10
2019-01-26T15:44:15.607Z,46.20
2019-01-26T15:46:45.891Z,45.83
2019-01-26T15:49:15.909Z,46.17
2019-01-26T15:51:46.613Z,45.93
2019-01-26T15:54:16.277Z,46.10
2019-01-26T15:56:46.024Z,45.43
2019-01-26T15:59:15.670Z,45.93
2019-01-26T16:01:45.449Z,45.70
2019-01-26T16:04:15.228Z,46.00
2019-01-26T16:06:44.916Z,45.97
2019-01-26T16:09:14.584Z,45.20
2019-01-26T16:11:44.290Z,45.50
2019-01-26T16:14:15.690Z,44.70
2019-01-26T16:16:46.337Z,45.17
2019-01-26T16:19:17.082Z,45.53
2019-01-26T16:21:48.575Z,44.83
2019-01-26T16:24:21.621Z,45.73
2019-01-26T16:26:51.289Z,44.87
2019-01-26T16:29:23.467Z,45.27
2019-01-26T16:31:54.465Z,44.83
2019-01-26T16:34:24.112Z,45.67
2019-01-26T16:36:53.783Z,46.40
2019-01-26T16:39:23.443Z,45.00
2019-01-26T16:41:53.111Z,45.10
2019-01-26T16:44:22.910Z,45.17
2019-01-26T16:46:52.647Z,45.00
2019-01-26T16:49:22.279Z,45.17
2019-01-26T16:51:51.940Z,44.80
2019-01-26T16:54:21.591Z,45.27
2019-01-26T16:56:51.248Z,45.87
2019-01-26T16:59:21.049Z,44.97
2019-01-26T17:01:50.817Z,45.83
2019-01-26T17:04:20.587Z,45.43
2019-01-26T17:06:51.168Z,44.87
2019-01-26T17:09:20.970Z,45.53
2019-01-26T17:11:51.444Z,45.60
2019-01-26T17:14:21.181Z,46.20
2019-01-26T17:16:50.846Z,45.70
2019-01-26T17:19:20.502Z,44.90
2019-01-26T17:21:50.214Z,45.20
2019-01-26T17:24:19.943Z,46.20
2019-01-26T17:26:52.812Z,46.13
2019-01-26T17:29:21.990Z,45.77
2019-01-26T17:31:51.716Z,46.20
2019-01-26T17:34:21.393Z,45.43
2019-01-26T17:36:51.134Z,46.33
2019-01-26T17:39:20.803Z,45.97
2019-01-26T17:41:50.516Z,45.83
2019-01-26T17:44:20.162Z,45.80
2019-01-26T17:46:49.834Z,46.30
2019-01-26T17:49:19.536Z,46.10
2019-01-26T17:51:49.184Z,46.10
2019-01-26T17:54:19.020Z,46.43
2019-01-26T17:56:48.678Z,46.97
2019-01-26T17:59:18.339Z,46.23
2019-01-26T18:01:48.172Z,45.77
2019-01-26T18:04:17.895Z,46.03
2019-01-26T18:06:47.610Z,45.73
2019-01-26T18:09:17.323Z,46.13
2019-01-26T18:11:46.960Z,45.47
2019-01-26T18:14:16.751Z,45.67
2019-01-26T18:16:46.464Z,45.93
2019-01-26T18:19:16.240Z,45.90
2019-01-26T18:21:46.115Z,45.33
2019-01-26T18:24:15.813Z,45.47
2019-01-26T18:26:45.517Z,45.80
2019-01-26T18:29:15.191Z,47.00
2019-01-26T18:31:44.955Z,45.77
2019-01-26T18:34:14.586Z,45.80
2019-01-26T18:36:44.327Z,45.40
2019-01-26T18:39:14.096Z,45.00
2019-01-26T18:41:43.838Z,45.80
2019-01-26T18:44:13.561Z,46.10
2019-01-26T18:46:43.384Z,45.73
2019-01-26T18:49:16.260Z,45.30
2019-01-26T18:51:46.142Z,46.70
2019-01-26T18:54:16.007Z,45.83
2019-01-26T18:56:45.639Z,45.93
2019-01-26T18:59:15.275Z,46.17
2019-01-26T19:01:45.430Z,45.70
2019-01-26T19:04:24.551Z,45.33
2019-01-26T19:06:54.280Z,46.03
2019-01-26T19:09:23.967Z,46.37
2019-01-26T19:11:53.764Z,45.47
2019-01-26T19:14:24.231Z,45.90
2019-01-26T19:16:54.710Z,45.70
2019-01-26T19:19:24.385Z,45.60
2019-01-26T19:21:54.221Z,45.47
2019-01-26T19:24:24.099Z,46.07
2019-01-26T19:26:55.736Z,45.47
2019-01-26T19:29:25.427Z,45.30
2019-01-26T19:31:57.456Z,45.13
2019-01-26T19:34:27.227Z,45.60
2019-01-26T19:36:57.049Z,47.23
2019-01-26T19:39:26.702Z,45.37
2019-01-26T19:41:56.366Z,45.77
2019-01-26T19:44:26.047Z,45.63
2019-01-26T19:46:55.718Z,45.77
2019-01-26T19:49:25.412Z,45.93
2019-01-26T19:51:58.206Z,45.50
2019-01-26T19:54:28.017Z,45.70
2019-01-26T19:56:58.724Z,45.63
2019-01-26T19:59:28.447Z,44.90
2019-01-26T20:01:58.271Z,45.63
2019-01-26T20:04:27.958Z,44.73
2019-01-26T20:06:57.657Z,45.40
2019-01-26T20:09:27.424Z,44.57
2019-01-26T20:11:57.167Z,44.73
2019-01-26T20:14:26.835Z,44.93
2019-01-26T20:17:01.234Z,44.93
2019-01-26T20:19:30.958Z,44.73
2019-01-26T20:22:00.646Z,44.57
2019-01-26T20:24:30.402Z,45.23
2019-01-26T20:27:00.127Z,44.90
2019-01-26T20:29:29.878Z,44.90
2019-01-26T20:32:03.726Z,44.83
2019-01-26T20:34:33.662Z,46.33
2019-01-26T20:37:03.340Z,45.53
2019-01-26T20:39:33.089Z,45.97
2019-01-26T20:42:02.824Z,45.77
2019-01-26T20:44:32.519Z,45.10
2019-01-26T20:47:02.187Z,45.50
2019-01-26T20:49:31.911Z,45.30
2019-01-26T20:52:01.873Z,45.20
2019-01-26T20:54:31.899Z,45.60
2019-01-26T20:57:01.982Z,44.77
2019-01-26T20:59:31.746Z,46.07
2019-01-26T21:02:01.594Z,45.33
2019-01-26T21:04:31.563Z,45.37
2019-01-26T21:07:01.558Z,45.27
2019-01-26T21:09:31.799Z,44.70
2019-01-26T21:12:01.824Z,45.47
2019-01-26T21:14:31.866Z,44.60
2019-01-26T21:17:02.832Z,44.67
2019-01-26T21:19:32.785Z,45.23
2019-01-26T21:22:02.680Z,46.63
2019-01-26T21:24:32.586Z,45.20
2019-01-26T21:27:02.490Z,46.77
2019-01-26T21:29:32.299Z,45.03
2019-01-26T21:32:03.184Z,44.93
2019-01-26T21:34:33.137Z,45.27
2019-01-26T21:37:03.068Z,44.90
2019-01-26T21:39:32.868Z,45.63
2019-01-26T21:42:02.690Z,45.53
2019-01-26T21:44:32.443Z,45.00
2019-01-26T21:47:02.401Z,44.80
2019-01-26T21:49:33.839Z,45.00
2019-01-26T21:52:03.796Z,44.83
2019-01-26T21:54:33.574Z,44.57
2019-01-26T21:57:03.508Z,45.40
2019-01-26T21:59:33.375Z,44.77
2019-01-26T22:02:03.399Z,44.67
2019-01-26T22:04:33.246Z,44.57
2019-01-26T22:07:03.568Z,45.40
2019-01-26T22:09:35.116Z,44.67
2019-01-26T22:12:07.307Z,45.00
2019-01-26T22:14:37.414Z,44.97
2019-01-26T22:17:10.283Z,44.53
2019-01-26T22:19:40.277Z,44.50
2019-01-26T22:22:10.148Z,44.60
2019-01-26T22:24:39.972Z,44.57
2019-01-26T22:27:10.187Z,44.73
2019-01-26T22:29:39.848Z,45.20
2019-01-26T22:32:09.689Z,45.17
2019-01-26T22:34:39.375Z,44.77
2019-01-26T22:37:09.148Z,45.33
2019-01-26T22:39:38.787Z,44.90
2019-01-26T22:42:08.506Z,45.77
2019-01-26T22:44:38.155Z,45.87
2019-01-26T22:47:07.964Z,44.87
2019-01-26T22:49:37.600Z,44.80
2019-01-26T22:52:07.391Z,45.07
2019-01-26T22:54:37.029Z,44.43
2019-01-26T22:57:06.663Z,44.37
2019-01-26T22:59:36.395Z,44.50
2019-01-26T23:02:06.719Z,44.13
2019-01-26T23:05:26.526Z,44.47
2019-01-26T23:08:00.702Z,44.10
2019-01-26T23:11:07.474Z,44.13
2019-01-26T23:14:11.927Z,45.07
2019-01-26T23:17:26.116Z,44.63
2019-01-26T23:20:11.529Z,44.57
2019-01-26T23:23:21.006Z,44.13
2019-01-26T23:26:43.599Z,43.90
2019-01-26T23:29:48.163Z,44.00
2019-01-26T23:32:17.969Z,44.23
2019-01-26T23:34:47.854Z,44.50
2019-01-26T23:37:17.589Z,44.00
2019-01-26T23:39:47.374Z,43.93
2019-01-26T23:42:17.224Z,44.40
2019-01-26T23:44:47.935Z,43.77
2019-01-26T23:47:17.667Z,43.70
2019-01-26T23:49:47.390Z,43.67
2019-01-26T23:52:17.119Z,43.70
2019-01-26T23:54:46.782Z,43.67
2019-01-26T23:57:16.493Z,43.60
2019-01-26T23:59:46.230Z,43.73
